MSC Splendida — 3FZI8 — position and weather

sailwx.info

Track history (hours):
 
Tides and Currents Weather Stations Pressure Air Temp Water Temp Dewpoint Dewpoint Depression Visibility Wind Speed Wind Dir Waves Ship Positions

MSC Splendida

Last reported at 2018-Sep-17 19:00 UTC. Time now 2018-Sep-19 01:33 UTC.
Position N 42°20' E 010°41'.

Length 333 m; draft 8.6 m.

Type: Ship. MMSI: 357698000.

Date/timePositionNaut miles runAvg speedWind from/ knotsBaromVisibWave heightAir tempDewpointWater temp
2018-Sep-17 19:00N 42°20' E 010°41'5425181.3
2018-Sep-16 13:04N 31°06' E 122°37'015.2
2018-Sep-16 13:03N 31°06' E 122°36'415.9
2018-Sep-16 12:50N 31°06' E 122°32'516.2
2018-Sep-16 12:30N 31°06' E 122°26'714.9
2018-Sep-16 12:03N 31°06' E 122°18'113.6
2018-Sep-16 12:00N 31°07' E 122°17'814.8
2018-Sep-16 11:29N 31°11' E 122°10'613.5
2018-Sep-16 11:03N 31°14' E 122°04'113.1
2018-Sep-16 11:00N 31°14' E 122°03'612.3
2018-Sep-16 10:30N 31°15' E 121°56'613.6
2018-Sep-16 10:02N 31°17' E 121°49'115.2
2018-Sep-16 10:00N 31°17' E 121°49'5 0.3
2018-Sep-15 18:46N 31°19' E 121°44'2 9.7
2018-Sep-15 18:30N 31°18' E 121°46'710.9
2018-Sep-15 17:54N 31°16' E 121°53'411.0
2018-Sep-15 17:30N 31°15' E 121°58'510.9
2018-Sep-15 17:03N 31°14' E 122°04'110.7
2018-Sep-15 16:57N 31°14' E 122°05'611.3
2018-Sep-15 16:28N 31°11' E 122°11'511.8
2018-Sep-15 16:03N 31°08' E 122°15'112.3
2018-Sep-15 15:58N 31°07' E 122°16'611.5
2018-Sep-15 15:29N 31°06' E 122°23'510.2
2018-Sep-15 14:59N 31°07' E 122°29'1714.5
2018-Sep-15 13:49N 31°07' E 122°48'911.2
2018-Sep-15 13:02N 31°09' E 122°58'  
2018-Sep-12 12:40N 31°05' E 122°31'413.7
2018-Sep-12 12:23N 31°06' E 122°26'412.4
2018-Sep-12 12:02N 31°06' E 122°21'112.4
2018-Sep-12 11:56N 31°06' E 122°20'613.7
2018-Sep-12 11:31N 31°09' E 122°14'715.3
2018-Sep-12 11:03N 31°13' E 122°07'115.0
2018-Sep-12 11:00N 31°13' E 122°06'815.2
2018-Sep-12 10:31N 31°15' E 121°58'715.0
2018-Sep-12 10:03N 31°17' E 121°50'116.0
2018-Sep-12 10:00N 31°17' E 121°49'5 0.3
2018-Sep-11 17:13N 31°19' E 121°44'210.0
2018-Sep-11 17:03N 31°18' E 121°46'010.0
2018-Sep-11 17:00N 31°18' E 121°47'611.2
2018-Sep-11 16:30N 31°16' E 121°53'611.9
2018-Sep-11 16:02N 31°15' E 121°59'112.2
2018-Sep-11 15:56N 31°15' E 122°00'511.7
2018-Sep-11 15:30N 31°14' E 122°06'511.5
2018-Sep-11 15:03N 31°10' E 122°11'111.6
2018-Sep-11 14:59N 31°10' E 122°12'612.2
2018-Sep-11 14:29N 31°07' E 122°18'712.2
2018-Sep-11 13:57N 31°07' E 122°25'5 0.1
2018-Sep-09 22:20N 31°06' E 122°20'311.4
2018-Sep-09 22:03N 31°07' E 122°17'112.9
2018-Sep-09 22:00N 31°08' E 122°16'714.3
2018-Sep-09 21:30N 31°12' E 122°09'614.0
2018-Sep-09 21:04N 31°14' E 122°03'113.6
2018-Sep-09 21:01N 31°14' E 122°02'713.8
2018-Sep-09 20:30N 31°16' E 121°54'612.6
2018-Sep-09 20:02N 31°18' E 121°47'011.8
2018-Sep-09 20:00N 31°18' E 121°47'0 0.0
2018-Sep-08 21:40N 31°18' E 121°47'211.6
2018-Sep-08 21:30N 31°17' E 121°49'511.3
2018-Sep-08 21:03N 31°16' E 121°54'110.2
2018-Sep-08 20:59N 31°16' E 121°55'510.0
2018-Sep-08 20:27N 31°15' E 122°01'4 9.6
2018-Sep-08 20:01N 31°14' E 122°06'0 9.8
2018-Sep-08 19:58N 31°13' E 122°07'7 9.9
2018-Sep-08 19:13N 31°09' E 122°14'210.8
2018-Sep-08 19:03N 31°08' E 122°15'111.4
2018-Sep-08 18:59N 31°08' E 122°16'  
Track history (hours):
 
Tides and Currents Weather Stations Pressure Air Temp Water Temp Dewpoint Dewpoint Depression Visibility Wind Speed Wind Dir Waves Ship Positions

MSC Splendida

Last reported at 2018-Sep-17 19:00 UTC. Time now 2018-Sep-19 01:33 UTC.
Position N 42°20' E 010°41'.

Length 333 m; draft 8.6 m.

Type: Ship. MMSI: 357698000.

Date/timePositionNaut miles runAvg speedWind from/ knotsBaromVisibWave heightAir tempDewpointWater temp
2018-Sep-17 19:00N 42°20' E 010°41'5425181.3
2018-Sep-16 13:04N 31°06' E 122°37'015.2
2018-Sep-16 13:03N 31°06' E 122°36'415.9
2018-Sep-16 12:50N 31°06' E 122°32'516.2
2018-Sep-16 12:30N 31°06' E 122°26'714.9
2018-Sep-16 12:03N 31°06' E 122°18'113.6
2018-Sep-16 12:00N 31°07' E 122°17'814.8
2018-Sep-16 11:29N 31°11' E 122°10'613.5
2018-Sep-16 11:03N 31°14' E 122°04'113.1
2018-Sep-16 11:00N 31°14' E 122°03'612.3
2018-Sep-16 10:30N 31°15' E 121°56'613.6
2018-Sep-16 10:02N 31°17' E 121°49'115.2
2018-Sep-16 10:00N 31°17' E 121°49'5 0.3
2018-Sep-15 18:46N 31°19' E 121°44'2 9.7
2018-Sep-15 18:30N 31°18' E 121°46'710.9
2018-Sep-15 17:54N 31°16' E 121°53'411.0
2018-Sep-15 17:30N 31°15' E 121°58'510.9
2018-Sep-15 17:03N 31°14' E 122°04'110.7
2018-Sep-15 16:57N 31°14' E 122°05'611.3
2018-Sep-15 16:28N 31°11' E 122°11'511.8
2018-Sep-15 16:03N 31°08' E 122°15'112.3
2018-Sep-15 15:58N 31°07' E 122°16'611.5
2018-Sep-15 15:29N 31°06' E 122°23'510.2
2018-Sep-15 14:59N 31°07' E 122°29'1714.5
2018-Sep-15 13:49N 31°07' E 122°48'911.2
2018-Sep-15 13:02N 31°09' E 122°58'  
2018-Sep-12 12:40N 31°05' E 122°31'413.7
2018-Sep-12 12:23N 31°06' E 122°26'412.4
2018-Sep-12 12:02N 31°06' E 122°21'112.4
2018-Sep-12 11:56N 31°06' E 122°20'613.7
2018-Sep-12 11:31N 31°09' E 122°14'715.3
2018-Sep-12 11:03N 31°13' E 122°07'115.0
2018-Sep-12 11:00N 31°13' E 122°06'815.2
2018-Sep-12 10:31N 31°15' E 121°58'715.0
2018-Sep-12 10:03N 31°17' E 121°50'116.0
2018-Sep-12 10:00N 31°17' E 121°49'5 0.3
2018-Sep-11 17:13N 31°19' E 121°44'210.0
2018-Sep-11 17:03N 31°18' E 121°46'010.0
2018-Sep-11 17:00N 31°18' E 121°47'611.2
2018-Sep-11 16:30N 31°16' E 121°53'611.9
2018-Sep-11 16:02N 31°15' E 121°59'112.2
2018-Sep-11 15:56N 31°15' E 122°00'511.7
2018-Sep-11 15:30N 31°14' E 122°06'511.5
2018-Sep-11 15:03N 31°10' E 122°11'111.6
2018-Sep-11 14:59N 31°10' E 122°12'612.2
2018-Sep-11 14:29N 31°07' E 122°18'712.2
2018-Sep-11 13:57N 31°07' E 122°25'5 0.1
2018-Sep-09 22:20N 31°06' E 122°20'311.4
2018-Sep-09 22:03N 31°07' E 122°17'112.9
2018-Sep-09 22:00N 31°08' E 122°16'714.3
2018-Sep-09 21:30N 31°12' E 122°09'614.0
2018-Sep-09 21:04N 31°14' E 122°03'113.6
2018-Sep-09 21:01N 31°14' E 122°02'713.8
2018-Sep-09 20:30N 31°16' E 121°54'612.6
2018-Sep-09 20:02N 31°18' E 121°47'011.8
2018-Sep-09 20:00N 31°18' E 121°47'0 0.0
2018-Sep-08 21:40N 31°18' E 121°47'211.6
2018-Sep-08 21:30N 31°17' E 121°49'511.3
2018-Sep-08 21:03N 31°16' E 121°54'110.2
2018-Sep-08 20:59N 31°16' E 121°55'510.0
2018-Sep-08 20:27N 31°15' E 122°01'4 9.6
2018-Sep-08 20:01N 31°14' E 122°06'0 9.8
2018-Sep-08 19:58N 31°13' E 122°07'7 9.9
2018-Sep-08 19:13N 31°09' E 122°14'210.8
2018-Sep-08 19:03N 31°08' E 122°15'111.4
2018-Sep-08 18:59N 31°08' E 122°16'  

Dump ship's entire track history